Rapports des METAR proches

 

LFAQ - Bray, France
Distance from station: SSO 19km
Mise à jour: 13/06/2024 21:00
Clair
Clair
 Vent SSE
Vent: SSE 7 km/h
Température: 16°C
Point de rosée: 10°C
Humidité: 68%
Baromètre: 1011 hPa
Résumé: Clair
Visibility: greater than 10 km
2024/06/13 19:00 LFAQ 131900Z AUTO 16004KT CAVOK 16/10 Q1011
LFQQ - Lille/Lesquin, France
Distance from station: NNE 53km
Mise à jour: 13/06/2024 21:00
Clair
Clair
 Vent S
Vent: S 7 km/h
Température: 17°C
Point de rosée: 8°C
Humidité: 56%
Baromètre: 1011 hPa
Résumé: Clair
Visibility: greater than 10 km
2024/06/13 19:00 LFQQ 131900Z AUTO 17004KT CAVOK 17/08 Q1011 TEMPO 4500 -RA
EBCV - Chievres Ab, Belgium
Distance from station: NE 88km
Mise à jour: 13/06/2024 20:55
Très nuageux
Très nuageux
 Vent OSO
Vent: OSO 7 km/h
Température: 17°C
Point de rosée: 8°C
Humidité: 56%
Baromètre: 1012 hPa
Clouds: Très nuageux
Visibility: 10 km
Cloud details: Quelques nuages 1676 m
Très nuageux 4877 m
2024/06/13 18:55 EBCV 131855Z AUTO 24004KT 9999 FEW055/// BKN160/// 17/08 Q1012 BLU
 
LFOB - Beauvais/Tille(A, France
Distance from station: SSO 88km
Mise à jour: 13/06/2024 21:00
Clair
Clair
 Vent S
Vent: S 7 km/h
Température: 17°C
Point de rosée: 9°C
Humidité: 59%
Baromètre: 1012 hPa
Résumé: Clair
Visibility: greater than 10 km
2024/06/13 19:00 LFOB 131900Z AUTO 18004KT CAVOK 17/09 Q1012 TEMPO 18015G25KT 4500 -RA
LFAT - Le Touquet/P. Pl, France
Distance from station: ONO 93km
Mise à jour: 13/06/2024 21:00
Pluie faible, Très nuageux
Pluie faible, Très nuageux
 Vent OSO
Vent: OSO 17 km/h
Température: 16°C
Point de rosée: 10°C
Humidité: 68%
Baromètre: 1011 hPa
Résumé: Pluie faible
Clouds: Très nuageux
Visibility: 10 km
Cloud details: Quelques nuages 1036 m
Très nuageux 1463 m
Très nuageux 1768 m
2024/06/13 19:00 LFAT 131900Z AUTO 24009KT 210V270 9999 -RA FEW034 BKN048 BKN058 16/10 Q1011
EBFN - Koksijde (bel-Af, Belgium
Distance from station: N 105km
Mise à jour: 13/06/2024 20:55
Couvert
Couvert
 Vent SSE
Vent: SSE 7 km/h
Température: 16°C
Point de rosée: 7°C
Humidité: 55%
Baromètre: 1011 hPa
Clouds: Couvert
Visibility: 10 km
Cloud details: Couvert 3658 m
2024/06/13 18:55 EBFN 131855Z AUTO 16004KT 9999 OVC120/// 16/07 Q1011 BLU
 
EBOS - Oostende Airport, Belgium
Distance from station: N 119km
Mise à jour: 13/06/2024 20:50
Clair
Clair
 Vent S
Vent: S 7 km/h
Température: 15°C
Point de rosée: 9°C
Humidité: 68%
Baromètre: 1012 hPa
Résumé: Clair
Visibility: greater than 10 km
2024/06/13 18:50 EBOS 131850Z 17004KT CAVOK 15/09 Q1012 NOSIG
EBCI - Charleroi/Gossel, Belgium
Distance from station: ENE 124km
Mise à jour: 13/06/2024 20:50
Clair
Clair
 Vent SO
Vent: SO 17 km/h
Température: 17°C
Point de rosée: 8°C
Humidité: 56%
Baromètre: 1013 hPa
Résumé: Clair
Visibility: greater than 10 km
2024/06/13 18:50 EBCI 131850Z 22009KT CAVOK 17/08 Q1013 NOSIG
LFPG - Charles De Gaull, France
Distance from station: S 125km
Mise à jour: 13/06/2024 21:00
Clair
Clair
 Vent S
Vent: S 22 km/h
Température: 19°C
Point de rosée: 6°C
Humidité: 43%
Baromètre: 1012 hPa
Résumé: Clair
Visibility: greater than 10 km
2024/06/13 19:00 LFPG 131900Z 19012KT CAVOK 19/06 Q1012 NOSIG
 
LFPT - Cormeilles Vexin, France
Distance from station: SSO 127km
Mise à jour: 13/06/2024 21:00
Clair
Clair
 Vent SSO
Vent: SSO 9 km/h
Température: 17°C
Point de rosée: 8°C
Humidité: 56%
Baromètre: 1012 hPa
Résumé: Clair
Visibility: greater than 10 km
2024/06/13 19:00 LFPT 131900Z AUTO 21005KT CAVOK 17/08 Q1012
LFPB - Paris/Le Bourget, France
Distance from station: S 132km
Mise à jour: 13/06/2024 21:00
Clair
Clair
 Vent S
Vent: S 20 km/h
Température: 20°C
Point de rosée: 5°C
Humidité: 38%
Baromètre: 1012 hPa
Résumé: Clair
Visibility: greater than 10 km
2024/06/13 19:00 LFPB 131900Z AUTO 19011KT CAVOK 20/05 Q1012 BECMG 4000 -RA
EBFS - Florennes (bel-A, Belgium
Distance from station: E 133km
Mise à jour: 13/06/2024 20:55
Très nuageux
Très nuageux
 Vent SSO
Vent: SSO 11 km/h
Température: 16°C
Point de rosée: 7°C
Humidité: 55%
Baromètre: 1013 hPa
Clouds: Très nuageux
Visibility: 10 km
Cloud details: Quelques nuages 1676 m
Très nuageux 4877 m
2024/06/13 18:55 EBFS 131855Z AUTO 20006KT 9999 FEW055/// BKN160/// 16/07 Q1013 BLU
 
LFQA - Reims/Prunay, France
Distance from station: SE 143km
Mise à jour: 13/06/2024 21:00
Clair
Clair
 Vent S
Vent: S 7 km/h
Température: 18°C
Point de rosée: 9°C
Humidité: 56%
Baromètre: 1013 hPa
Résumé: Clair
Visibility: greater than 10 km
2024/06/13 19:00 LFQA 131900Z AUTO 18004KT CAVOK 18/09 Q1013
LFOP - Rouen/Boos (aut), France
Distance from station: SO 144km
Mise à jour: 13/06/2024 21:00
Pluie faible, Partiellement nuageux
Pluie faible, Partiellement nuageux
 Vent OSO
Vent: OSO 17 km/h
Température: 14°C
Point de rosée: 10°C
Humidité: 77%
Baromètre: 1012 hPa
Résumé: Pluie faible
Clouds: Partiellement nuageux
Visibility: 10 km
2024/06/13 19:00 LFOP 131900Z AUTO 24009KT 9999 -RA NSC 14/10 Q1012
EBBR - Brussels Nationa, Belgium
Distance from station: NE 148km
Mise à jour: 13/06/2024 20:50
Clair
Clair
 Vent SO
Vent: SO 9 km/h
Température: 17°C
Point de rosée: 9°C
Humidité: 59%
Baromètre: 1012 hPa
Résumé: Clair
Visibility: greater than 10 km
2024/06/13 18:50 EBBR 131850Z 22005KT CAVOK 17/09 Q1012 NOSIG
 
EBBE - Beauvechain (baf, Belgium
Distance from station: ENE 156km
Mise à jour: 13/06/2024 20:55
Très nuageux
Très nuageux
 Vent SSO
Vent: SSO 11 km/h
Température: 17°C
Point de rosée: 8°C
Humidité: 56%
Baromètre: 1012 hPa
Clouds: Très nuageux
Visibility: 10 km
Cloud details: Quelques nuages 1829 m
Très nuageux 4877 m
2024/06/13 18:55 EBBE 131855Z AUTO 20006KT 9999 FEW060/// BKN160/// 17/08 Q1012 BLU
EHFS - Vlissingen, Netherlands
Distance from station: NNE 157km
Mise à jour: 13/06/2024 20:55
Partiellement nuageux
Partiellement nuageux
 Vent NO
Vent: NO 11 km/h
Température: 15°C
Point de rosée: 10°C
Humidité: 72%
Baromètre: 1012 hPa
Clouds: Partiellement nuageux
Visibility: 10 km
2024/06/13 18:55 EHFS 131855Z AUTO 31006KT 9999 NSC 15/10 Q1012
LFPV - Villacoublay/Vel, France
Distance from station: SSO 157km
Mise à jour: 13/06/2024 21:00
Clair
Clair
 Vent S
Vent: S 11 km/h
Température: 18°C
Point de rosée: 7°C
Humidité: 49%
Baromètre: 1012 hPa
Résumé: Clair
Visibility: greater than 10 km
2024/06/13 19:00 LFPV 131900Z AUTO 18006KT CAVOK 18/07 Q1012 NOSIG
 
EGMD - Lydd Airport, United Kingdom
Distance from station: NO 160km
Mise à jour: 13/06/2024 20:50
Pluie faible, Partiellement nuageux
Pluie faible, Partiellement nuageux
 Vent S
Vent: S 22 km/h
Température: 14°C
Point de rosée: 10°C
Humidité: 77%
Baromètre: 1010 hPa
Résumé: Pluie faible
Clouds: Partiellement nuageux
Visibility: 10 km
Cloud details: Partiellement nuageux 1494 m
2024/06/13 18:50 EGMD 131850Z AUTO 19012KT 9999 -RA SCT049/// 14/10 Q1010